< < Back
Terminal Aerodrome Forecast


Current Version              Previous Versions:   1  2  3  4  5  6  7  8  9  

Terminal Aerodrome Forecast

218
FTAK31 PAJN 260500
TAFAHN
TAF
PAHN 260526Z 2606/2706 11005KT P6SM -RA FEW005 SCT015 OVC050
      TEMPO 2606/2610 6SM -RA BR SCT005 BKN015 OVC050
     FM261400 08006KT 4SM -RA BR SCT005 BKN015 OVC030
     FM262000 11008KT 6SM -RA BR SCT015 OVC030
      AMD LTD TO CLD VIS AND WIND=



Latest METAR

351
SAUS70 KWBC 261400 RRS
MTRAHN
METAR KAHN 261451Z 00000KT 10SM CLR 29/19 A3007 RMK AO2 SLP176 T02940194
51010


USA.gov is the U.S. government's official web portal to all federal, state and local government web resources and services.